createdAt,value
2019-05-29T00:00:40.517Z,72.62
2019-05-29T00:03:10.546Z,72.75
2019-05-29T00:05:38.903Z,72.97
2019-05-29T00:08:08.235Z,72.84
2019-05-29T00:10:36.589Z,73.41
2019-05-29T00:13:04.745Z,73.82
2019-05-29T00:15:32.889Z,73.86
2019-05-29T00:18:03.541Z,73.59
2019-05-29T00:20:31.671Z,73.50
2019-05-29T00:22:59.812Z,73.88
2019-05-29T00:25:28.030Z,73.91
2019-05-29T00:27:56.234Z,74.16
2019-05-29T00:30:24.341Z,74.34
2019-05-29T00:32:52.570Z,74.25
2019-05-29T00:35:20.687Z,74.10
2019-05-29T00:37:51.928Z,74.20
2019-05-29T00:40:20.749Z,73.97
2019-05-29T00:42:48.897Z,74.14
2019-05-29T00:45:17.720Z,74.10
2019-05-29T00:47:46.113Z,74.30
2019-05-29T00:50:16.901Z,74.54
2019-05-29T00:52:45.097Z,74.48
2019-05-29T00:55:14.697Z,74.43
2019-05-29T00:57:43.053Z,74.46
2019-05-29T01:00:11.740Z,74.46
2019-05-29T01:02:39.890Z,74.63
2019-05-29T01:05:08.123Z,74.65
2019-05-29T01:07:36.297Z,74.73
2019-05-29T01:10:05.984Z,74.74
2019-05-29T01:12:36.491Z,74.72
2019-05-29T01:15:05.939Z,74.71
2019-05-29T01:17:34.121Z,74.55
2019-05-29T01:20:05.373Z,74.76
2019-05-29T01:22:33.632Z,74.75
2019-05-29T01:25:01.781Z,74.74
2019-05-29T01:27:29.935Z,74.96
2019-05-29T01:29:58.097Z,74.89
2019-05-29T01:32:26.300Z,75.09
2019-05-29T01:34:55.948Z,75.24
2019-05-29T01:37:24.394Z,75.23
2019-05-29T01:39:52.649Z,75.27
2019-05-29T01:42:23.883Z,75.35
2019-05-29T01:45:06.643Z,75.46
2019-05-29T01:47:24.018Z,75.44
2019-05-29T01:49:52.157Z,75.33
2019-05-29T01:52:23.801Z,75.43
2019-05-29T01:54:52.039Z,75.52
2019-05-29T01:57:20.167Z,75.64
2019-05-29T01:59:48.293Z,75.86
2019-05-29T02:02:17.699Z,75.82
2019-05-29T02:04:46.019Z,75.65
2019-05-29T02:07:14.163Z,75.51
2019-05-29T02:09:42.466Z,75.69
2019-05-29T02:12:10.644Z,75.94
2019-05-29T02:14:38.786Z,75.98
2019-05-29T02:17:06.969Z,75.97
2019-05-29T02:19:35.107Z,75.95
2019-05-29T02:22:03.241Z,75.89
2019-05-29T02:24:31.474Z,75.89
2019-05-29T02:26:59.613Z,76.03
2019-05-29T02:29:27.789Z,76.20
2019-05-29T02:31:55.907Z,76.38
2019-05-29T02:34:25.529Z,76.36
2019-05-29T02:36:54.536Z,76.22
2019-05-29T02:39:23.457Z,76.31
2019-05-29T02:41:52.575Z,76.51
2019-05-29T02:44:21.170Z,76.47
2019-05-29T02:46:49.568Z,76.47
2019-05-29T02:49:19.977Z,76.40
2019-05-29T02:51:48.661Z,76.45
2019-05-29T02:54:16.837Z,76.50
2019-05-29T02:56:45.034Z,76.49
2019-05-29T02:59:13.179Z,76.56
2019-05-29T03:01:41.394Z,76.50
2019-05-29T03:04:09.558Z,76.50
2019-05-29T03:06:37.904Z,76.61
2019-05-29T03:09:06.499Z,76.66
2019-05-29T03:11:34.657Z,76.69
2019-05-29T03:14:02.799Z,76.79
2019-05-29T03:16:32.855Z,76.92
2019-05-29T03:19:00.849Z,77.06
2019-05-29T03:21:30.581Z,77.11
2019-05-29T03:24:01.775Z,77.48
2019-05-29T03:26:31.257Z,77.61
2019-05-29T03:28:59.796Z,77.55
2019-05-29T03:31:32.204Z,77.52
2019-05-29T03:33:58.082Z,77.46
2019-05-29T03:36:28.395Z,77.56
2019-05-29T03:38:56.295Z,77.42
2019-05-29T03:41:26.185Z,77.52
2019-05-29T03:43:54.360Z,77.50
2019-05-29T03:46:31.450Z,77.42
2019-05-29T03:48:52.493Z,77.41
2019-05-29T03:51:20.665Z,77.55
2019-05-29T03:53:48.791Z,77.39
2019-05-29T03:56:16.948Z,77.63
2019-05-29T03:58:45.107Z,77.91
2019-05-29T04:01:13.269Z,78.02
2019-05-29T04:03:41.446Z,78.48
2019-05-29T04:06:09.541Z,78.72
2019-05-29T04:08:38.352Z,78.64
2019-05-29T04:11:07.625Z,78.83
2019-05-29T04:13:36.597Z,78.95
2019-05-29T04:16:06.550Z,79.12
2019-05-29T04:18:35.923Z,79.39
2019-05-29T04:21:04.316Z,79.42
2019-05-29T04:23:34.644Z,79.69
2019-05-29T04:26:04.284Z,79.55
2019-05-29T04:28:34.923Z,79.69
2019-05-29T04:31:03.132Z,79.73
2019-05-29T04:33:32.633Z,79.95
2019-05-29T04:36:01.315Z,79.95
2019-05-29T04:38:30.975Z,80.06
2019-05-29T04:40:59.385Z,79.99
2019-05-29T04:43:28.839Z,79.98
2019-05-29T04:45:57.050Z,80.06
2019-05-29T04:48:25.307Z,80.08
2019-05-29T04:50:53.451Z,80.34
2019-05-29T04:53:21.624Z,80.24
2019-05-29T04:55:49.767Z,80.21
2019-05-29T04:58:17.951Z,80.35
2019-05-29T05:00:58.583Z,80.31
2019-05-29T05:03:16.069Z,80.17
2019-05-29T05:05:44.245Z,80.13
2019-05-29T05:08:12.436Z,80.33
2019-05-29T05:10:41.379Z,80.15
2019-05-29T05:13:09.540Z,80.21
2019-05-29T05:15:38.185Z,80.25
2019-05-29T05:18:08.256Z,80.32
2019-05-29T05:20:36.495Z,80.35
2019-05-29T05:23:05.276Z,80.46
2019-05-29T05:25:38.359Z,80.48
2019-05-29T05:28:06.565Z,80.42
2019-05-29T05:30:34.786Z,80.54
2019-05-29T05:33:04.666Z,80.55
2019-05-29T05:35:32.987Z,80.50
2019-05-29T05:38:03.922Z,80.54
2019-05-29T05:40:32.991Z,80.18
2019-05-29T05:43:04.553Z,80.25
2019-05-29T05:45:32.942Z,79.94
2019-05-29T05:48:03.193Z,79.26
2019-05-29T05:50:31.407Z,79.19
2019-05-29T05:52:59.519Z,78.93
2019-05-29T05:55:28.843Z,78.39
2019-05-29T05:57:57.005Z,77.93
2019-05-29T06:00:34.139Z,77.45
2019-05-29T06:03:02.354Z,77.13
2019-05-29T06:05:31.898Z,76.48
2019-05-29T06:08:00.323Z,76.00
2019-05-29T06:10:28.439Z,75.77
2019-05-29T06:12:56.595Z,75.63
2019-05-29T06:15:24.925Z,75.50
2019-05-29T06:18:17.129Z,75.58
2019-05-29T06:20:22.953Z,75.44
2019-05-29T06:22:51.123Z,75.50
2019-05-29T06:25:19.253Z,75.21
2019-05-29T06:27:47.397Z,74.88
2019-05-29T06:30:15.984Z,74.60
2019-05-29T06:32:45.238Z,73.69
2019-05-29T06:35:14.312Z,73.23
2019-05-29T06:37:43.648Z,72.83
2019-05-29T06:40:12.298Z,71.57
2019-05-29T06:42:40.469Z,70.92
2019-05-29T06:45:09.307Z,71.15
2019-05-29T06:47:38.605Z,71.09
2019-05-29T06:50:07.244Z,70.23
2019-05-29T06:52:35.425Z,70.13
2019-05-29T06:55:03.828Z,69.76
2019-05-29T06:57:32.021Z,68.93
2019-05-29T07:00:00.150Z,68.94
2019-05-29T07:02:31.681Z,68.83
2019-05-29T07:04:58.187Z,68.18
2019-05-29T07:07:26.380Z,68.18
2019-05-29T07:09:58.734Z,67.93
2019-05-29T07:12:24.486Z,67.00
2019-05-29T07:14:52.658Z,66.37
2019-05-29T07:17:20.878Z,66.25
2019-05-29T07:20:00.734Z,65.96
2019-05-29T07:22:18.917Z,65.79
2019-05-29T07:24:47.097Z,65.70
2019-05-29T07:27:15.257Z,65.64
2019-05-29T07:29:43.592Z,64.37
2019-05-29T07:32:11.679Z,64.07
2019-05-29T07:34:53.718Z,63.50
2019-05-29T07:37:09.699Z,63.06
2019-05-29T07:39:37.871Z,63.47
2019-05-29T07:42:06.008Z,62.74
2019-05-29T07:44:34.168Z,61.79
2019-05-29T07:47:02.326Z,61.79
2019-05-29T07:49:39.048Z,60.95
2019-05-29T07:52:00.401Z,60.14
2019-05-29T07:54:28.538Z,59.96
2019-05-29T07:56:56.694Z,58.54
2019-05-29T07:59:24.807Z,58.69
2019-05-29T08:01:53.010Z,58.77
2019-05-29T08:04:21.194Z,58.24
2019-05-29T08:06:54.236Z,57.43
2019-05-29T08:09:19.294Z,56.78
2019-05-29T08:11:47.736Z,54.94
2019-05-29T08:14:15.909Z,55.01
2019-05-29T08:16:44.107Z,54.76
2019-05-29T08:19:12.195Z,54.53
2019-05-29T08:21:41.036Z,54.15
2019-05-29T08:24:10.176Z,53.98
2019-05-29T08:26:38.318Z,51.81
2019-05-29T08:29:06.494Z,51.31
2019-05-29T08:31:34.647Z,50.95
2019-05-29T08:34:02.811Z,49.90
2019-05-29T08:36:30.940Z,49.08
2019-05-29T08:38:59.103Z,48.59
2019-05-29T08:41:27.310Z,48.58
2019-05-29T08:43:55.487Z,48.89
2019-05-29T08:46:23.640Z,48.63
2019-05-29T08:48:52.269Z,47.32
2019-05-29T08:51:20.600Z,46.04
2019-05-29T08:53:52.484Z,44.78
2019-05-29T08:56:20.893Z,42.33
2019-05-29T08:58:52.566Z,42.33
2019-05-29T09:01:20.810Z,41.07
2019-05-29T09:03:51.369Z,39.33
2019-05-29T09:06:19.998Z,38.51
2019-05-29T09:08:49.932Z,37.33
2019-05-29T09:11:18.095Z,37.07
2019-05-29T09:13:46.274Z,36.42
2019-05-29T09:16:17.288Z,36.04
2019-05-29T09:18:45.493Z,35.96
2019-05-29T09:21:14.434Z,35.95
2019-05-29T09:23:43.577Z,36.32
2019-05-29T09:26:19.047Z,36.46
2019-05-29T09:28:44.715Z,35.65
2019-05-29T09:31:15.089Z,34.90
2019-05-29T09:33:42.525Z,33.59
2019-05-29T09:36:13.954Z,32.40
2019-05-29T09:38:44.234Z,32.21
2019-05-29T09:41:21.703Z,32.31
2019-05-29T09:43:58.674Z,32.26
2019-05-29T09:46:20.246Z,32.38
2019-05-29T09:48:50.357Z,31.85
2019-05-29T09:51:21.897Z,31.64
2019-05-29T09:53:50.436Z,31.39
2019-05-29T09:56:19.509Z,31.49
2019-05-29T09:58:50.685Z,30.69
2019-05-29T10:01:24.154Z,30.40
2019-05-29T10:03:51.069Z,30.00
2019-05-29T10:06:19.401Z,30.39
2019-05-29T10:08:47.574Z,32.26
2019-05-29T10:11:15.830Z,32.26
2019-05-29T10:13:45.011Z,32.48
2019-05-29T10:16:13.351Z,33.46
2019-05-29T10:18:41.561Z,34.54
2019-05-29T10:21:17.633Z,34.70
2019-05-29T10:23:45.906Z,34.57
2019-05-29T10:26:14.130Z,33.92
2019-05-29T10:28:55.632Z,33.29
2019-05-29T10:31:12.212Z,32.33
2019-05-29T10:33:42.379Z,31.57
2019-05-29T10:36:10.631Z,30.52
2019-05-29T10:38:42.756Z,30.11
2019-05-29T10:41:10.961Z,29.20
2019-05-29T10:43:39.154Z,28.89
2019-05-29T10:46:07.367Z,28.77
2019-05-29T10:48:35.566Z,27.93
2019-05-29T10:51:05.236Z,28.15
2019-05-29T10:53:33.433Z,27.63
2019-05-29T10:56:01.638Z,27.48
2019-05-29T10:58:29.760Z,27.01
2019-05-29T11:00:57.912Z,27.41
2019-05-29T11:03:26.151Z,27.47
2019-05-29T11:05:56.617Z,27.67
2019-05-29T11:08:24.871Z,27.34
2019-05-29T11:10:54.165Z,27.04
2019-05-29T11:13:22.361Z,27.13
2019-05-29T11:15:50.836Z,26.23
2019-05-29T11:18:19.016Z,24.96
2019-05-29T11:20:49.622Z,25.75
2019-05-29T11:23:17.047Z,25.65
2019-05-29T11:25:49.888Z,25.40
2019-05-29T11:28:18.488Z,25.31
2019-05-29T11:30:46.621Z,25.67
2019-05-29T11:33:14.957Z,25.84
2019-05-29T11:35:57.247Z,24.96
2019-05-29T11:38:13.158Z,24.68
2019-05-29T11:40:41.517Z,24.84
2019-05-29T11:43:09.807Z,24.70
2019-05-29T11:45:37.988Z,24.40
2019-05-29T11:48:06.058Z,24.02
2019-05-29T11:50:34.206Z,23.88
2019-05-29T11:53:02.689Z,23.75
2019-05-29T11:55:30.992Z,23.55
2019-05-29T11:58:01.949Z,22.92
2019-05-29T12:00:29.449Z,22.35
2019-05-29T12:02:57.800Z,21.99
2019-05-29T12:05:26.023Z,21.58
2019-05-29T12:07:55.498Z,21.39
2019-05-29T12:10:23.884Z,20.60
2019-05-29T12:12:53.257Z,20.75
2019-05-29T12:15:21.943Z,20.55
2019-05-29T12:17:50.098Z,20.49
2019-05-29T12:20:27.896Z,20.70
2019-05-29T12:23:12.956Z,20.73
2019-05-29T12:25:18.452Z,20.49
2019-05-29T12:27:46.766Z,20.48
2019-05-29T12:30:15.851Z,19.87
2019-05-29T12:32:44.028Z,19.67
2019-05-29T12:35:12.579Z,19.50
2019-05-29T12:37:40.744Z,19.79
2019-05-29T12:40:09.675Z,19.66
2019-05-29T12:42:44.800Z,19.81
2019-05-29T12:45:14.513Z,19.61
2019-05-29T12:47:42.627Z,20.05
2019-05-29T12:50:11.461Z,20.67
2019-05-29T12:52:39.756Z,21.05
2019-05-29T12:55:09.683Z,21.57
2019-05-29T12:57:37.895Z,22.18
2019-05-29T13:00:06.540Z,22.47
2019-05-29T13:02:34.660Z,22.69
2019-05-29T13:05:09.341Z,22.93
2019-05-29T13:07:33.595Z,23.18
2019-05-29T13:10:02.842Z,23.74
2019-05-29T13:12:31.145Z,23.84
2019-05-29T13:15:00.619Z,23.86
2019-05-29T13:17:28.830Z,23.85
2019-05-29T13:20:06.825Z,24.02
2019-05-29T13:22:27.170Z,24.33
2019-05-29T13:24:55.320Z,24.92
2019-05-29T13:27:24.071Z,25.93
2019-05-29T13:29:56.562Z,26.62
2019-05-29T13:32:22.250Z,26.72
2019-05-29T13:34:50.403Z,27.04
2019-05-29T13:37:18.562Z,26.99
2019-05-29T13:39:46.668Z,26.63
2019-05-29T13:42:14.869Z,26.38
2019-05-29T13:44:43.302Z,26.43
2019-05-29T13:47:11.649Z,26.68
2019-05-29T13:49:39.819Z,27.11
2019-05-29T13:52:12.516Z,27.28
2019-05-29T13:54:40.956Z,27.47
2019-05-29T13:57:09.089Z,27.23
2019-05-29T13:59:37.257Z,27.57
2019-05-29T14:02:06.719Z,27.58
2019-05-29T14:04:35.280Z,27.41
2019-05-29T14:07:04.938Z,27.54
2019-05-29T14:09:33.238Z,26.92
2019-05-29T14:12:01.409Z,26.87
2019-05-29T14:14:29.676Z,27.06
2019-05-29T14:16:57.785Z,27.15
2019-05-29T14:19:25.998Z,27.23
2019-05-29T14:21:54.150Z,27.19
2019-05-29T14:24:29.282Z,27.24
2019-05-29T14:26:52.264Z,27.39
2019-05-29T14:29:20.424Z,27.18
2019-05-29T14:31:48.561Z,27.22
2019-05-29T14:34:16.705Z,27.71
2019-05-29T14:36:44.909Z,27.84
2019-05-29T14:39:13.090Z,28.02
2019-05-29T14:41:41.277Z,27.87
2019-05-29T14:44:09.956Z,27.97
2019-05-29T14:46:38.268Z,28.27
2019-05-29T14:49:06.763Z,28.47
2019-05-29T14:51:34.895Z,28.29
2019-05-29T14:54:03.044Z,28.64
2019-05-29T14:56:31.538Z,28.34
2019-05-29T14:58:59.768Z,28.49
2019-05-29T15:01:27.944Z,28.58
2019-05-29T15:03:56.097Z,28.41
2019-05-29T15:06:24.254Z,28.63
2019-05-29T15:08:52.440Z,28.70
2019-05-29T15:11:23.038Z,28.74
2019-05-29T15:13:51.306Z,28.74
2019-05-29T15:16:19.482Z,29.05
2019-05-29T15:18:47.666Z,28.99
2019-05-29T15:21:15.766Z,28.96
2019-05-29T15:23:44.360Z,28.53
2019-05-29T15:26:13.524Z,28.43
2019-05-29T15:28:41.873Z,28.49
2019-05-29T15:31:10.423Z,28.65
2019-05-29T15:33:38.609Z,28.70
2019-05-29T15:36:06.975Z,27.85
2019-05-29T15:38:35.112Z,27.72
2019-05-29T15:41:03.247Z,27.72
2019-05-29T15:43:31.516Z,27.22
2019-05-29T15:45:59.766Z,27.04
2019-05-29T15:48:27.895Z,27.16
2019-05-29T15:50:56.095Z,27.64
2019-05-29T15:53:24.273Z,27.97
2019-05-29T15:55:52.420Z,28.34
2019-05-29T15:58:20.591Z,28.10
2019-05-29T16:00:48.737Z,27.85
2019-05-29T16:03:17.779Z,28.10
2019-05-29T16:05:46.114Z,28.35
2019-05-29T16:08:14.417Z,28.39
2019-05-29T16:10:42.643Z,28.32
2019-05-29T16:13:13.157Z,28.62
2019-05-29T16:15:40.382Z,29.08
2019-05-29T16:18:21.827Z,29.78
2019-05-29T16:20:38.501Z,29.71
2019-05-29T16:23:06.649Z,29.64
2019-05-29T16:25:40.615Z,29.27
2019-05-29T16:28:08.563Z,29.11
2019-05-29T16:30:36.698Z,29.19
2019-05-29T16:33:04.908Z,29.31
2019-05-29T16:35:37.135Z,29.56
2019-05-29T16:38:04.927Z,29.74
2019-05-29T16:40:34.539Z,30.12
2019-05-29T16:43:02.676Z,30.48
2019-05-29T16:45:30.840Z,30.64
2019-05-29T16:47:58.957Z,31.10
2019-05-29T16:50:27.164Z,31.37
2019-05-29T16:52:55.344Z,31.49
2019-05-29T16:55:23.481Z,31.91
2019-05-29T16:57:51.703Z,32.14
2019-05-29T17:00:21.693Z,32.00
2019-05-29T17:02:50.077Z,31.63
2019-05-29T17:05:20.298Z,31.59
2019-05-29T17:07:48.472Z,31.46
2019-05-29T17:10:18.386Z,31.21
2019-05-29T17:12:46.668Z,31.01
2019-05-29T17:15:17.142Z,30.37
2019-05-29T17:17:51.958Z,30.32
2019-05-29T17:20:39.300Z,29.88
2019-05-29T17:23:07.487Z,29.94
2019-05-29T17:25:35.636Z,30.30
2019-05-29T17:28:03.832Z,30.50
2019-05-29T17:30:31.973Z,31.01
2019-05-29T17:33:00.114Z,31.33
2019-05-29T17:35:28.233Z,31.44
2019-05-29T17:37:56.468Z,31.50
2019-05-29T17:40:25.530Z,31.41
2019-05-29T17:42:53.757Z,31.28
2019-05-29T17:45:24.246Z,31.48
2019-05-29T17:47:51.953Z,31.32
2019-05-29T17:50:22.910Z,31.49
2019-05-29T17:52:50.157Z,31.69
2019-05-29T17:55:21.678Z,31.87
2019-05-29T17:57:47.897Z,32.33
2019-05-29T18:00:18.087Z,32.71
2019-05-29T18:02:51.779Z,32.93
2019-05-29T18:05:18.315Z,33.55
2019-05-29T18:07:45.734Z,34.11
2019-05-29T18:10:19.326Z,34.60
2019-05-29T18:12:46.670Z,34.50
2019-05-29T18:15:17.191Z,35.08
2019-05-29T18:17:44.471Z,35.29
2019-05-29T18:20:14.595Z,36.09
2019-05-29T18:22:42.641Z,35.75
2019-05-29T18:25:11.425Z,36.16
2019-05-29T18:27:39.757Z,36.66
2019-05-29T18:30:11.611Z,36.97
2019-05-29T18:32:41.195Z,37.40
2019-05-29T18:35:09.862Z,37.77
2019-05-29T18:37:38.172Z,38.08
2019-05-29T18:40:11.440Z,38.63
2019-05-29T18:42:37.137Z,38.75
2019-05-29T18:45:19.709Z,38.85
2019-05-29T18:47:35.647Z,38.59
2019-05-29T18:50:08.583Z,38.56
2019-05-29T18:52:36.716Z,38.76
2019-05-29T18:55:06.529Z,38.77
2019-05-29T18:57:34.703Z,38.90
2019-05-29T19:00:03.525Z,39.15
2019-05-29T19:02:31.750Z,39.17
2019-05-29T19:04:59.952Z,39.39
2019-05-29T19:07:28.126Z,39.50
2019-05-29T19:09:57.330Z,39.50
2019-05-29T19:12:25.802Z,39.56
2019-05-29T19:14:53.987Z,39.81
2019-05-29T19:17:22.151Z,40.02
2019-05-29T19:19:50.398Z,40.33
2019-05-29T19:22:18.518Z,40.72
2019-05-29T19:24:46.724Z,40.84
2019-05-29T19:27:30.101Z,41.09
2019-05-29T19:29:44.898Z,41.31
2019-05-29T19:32:13.121Z,41.48
2019-05-29T19:34:41.950Z,41.68
2019-05-29T19:37:10.053Z,41.85
2019-05-29T19:39:38.498Z,42.02
2019-05-29T19:42:06.633Z,42.25
2019-05-29T19:44:34.806Z,42.46
2019-05-29T19:47:02.990Z,42.62
2019-05-29T19:49:31.237Z,42.85
2019-05-29T19:51:59.356Z,43.08
2019-05-29T19:54:27.509Z,43.32
2019-05-29T19:56:55.738Z,43.46
2019-05-29T19:59:23.940Z,43.77
2019-05-29T20:01:52.067Z,43.97
2019-05-29T20:04:20.197Z,44.17
2019-05-29T20:06:48.395Z,44.37
2019-05-29T20:09:16.542Z,44.55
2019-05-29T20:11:44.700Z,44.86
2019-05-29T20:14:12.853Z,44.97
2019-05-29T20:16:41.049Z,45.21
2019-05-29T20:19:09.238Z,45.44
2019-05-29T20:21:37.419Z,45.59
2019-05-29T20:24:05.537Z,45.88
2019-05-29T20:26:33.670Z,45.99
2019-05-29T20:29:01.807Z,46.10
2019-05-29T20:31:30.440Z,46.10
2019-05-29T20:33:59.838Z,46.20
2019-05-29T20:36:27.985Z,46.26
2019-05-29T20:38:56.218Z,46.41
2019-05-29T20:41:24.418Z,46.59
2019-05-29T20:43:52.595Z,46.67
2019-05-29T20:46:20.703Z,46.68
2019-05-29T20:48:48.872Z,46.68
2019-05-29T20:51:17.038Z,46.72
2019-05-29T20:53:45.196Z,46.85
2019-05-29T20:56:14.040Z,46.74
2019-05-29T20:58:42.206Z,46.62
2019-05-29T21:01:10.329Z,46.56
2019-05-29T21:03:38.705Z,46.56
2019-05-29T21:06:09.545Z,46.54
2019-05-29T21:08:38.930Z,46.52
2019-05-29T21:11:07.281Z,46.40
2019-05-29T21:13:35.502Z,46.44
2019-05-29T21:16:03.732Z,46.55
2019-05-29T21:18:31.974Z,46.53
2019-05-29T21:21:00.196Z,46.50
2019-05-29T21:23:28.380Z,46.44
2019-05-29T21:25:56.495Z,46.57
2019-05-29T21:28:39.244Z,46.65
2019-05-29T21:30:54.631Z,46.67
2019-05-29T21:33:22.855Z,46.75
2019-05-29T21:35:51.018Z,46.81
2019-05-29T21:38:19.197Z,46.92
2019-05-29T21:40:47.373Z,47.06
2019-05-29T21:43:15.535Z,47.17
2019-05-29T21:45:44.918Z,47.24
2019-05-29T21:48:13.336Z,47.23
2019-05-29T21:50:41.497Z,47.28
2019-05-29T21:53:09.713Z,47.41
2019-05-29T21:55:37.874Z,47.51
2019-05-29T21:58:06.013Z,47.67
2019-05-29T22:00:34.526Z,47.88
2019-05-29T22:03:02.627Z,48.10
2019-05-29T22:05:30.809Z,48.33
2019-05-29T22:07:58.982Z,48.70
2019-05-29T22:10:27.198Z,48.92
2019-05-29T22:12:56.451Z,49.28
2019-05-29T22:15:24.781Z,49.57
2019-05-29T22:17:52.967Z,50.01
2019-05-29T22:20:21.116Z,50.25
2019-05-29T22:22:49.295Z,50.60
2019-05-29T22:25:18.869Z,51.11
2019-05-29T22:27:47.032Z,51.68
2019-05-29T22:30:15.633Z,52.13
2019-05-29T22:32:44.110Z,52.29
2019-05-29T22:35:12.791Z,52.78
2019-05-29T22:37:42.278Z,52.73
2019-05-29T22:40:11.535Z,52.95
2019-05-29T22:42:39.717Z,53.27
2019-05-29T22:45:08.211Z,53.58
2019-05-29T22:47:36.407Z,54.05
2019-05-29T22:50:08.028Z,54.26
2019-05-29T22:52:36.154Z,54.55
2019-05-29T22:55:04.556Z,54.63
2019-05-29T22:57:32.729Z,54.78
2019-05-29T23:00:02.341Z,54.89
2019-05-29T23:02:30.681Z,54.95
2019-05-29T23:04:58.865Z,55.17
2019-05-29T23:07:26.991Z,55.26
2019-05-29T23:09:56.127Z,55.27
2019-05-29T23:12:24.329Z,55.29
2019-05-29T23:14:52.527Z,55.37
2019-05-29T23:17:20.672Z,55.43
2019-05-29T23:19:52.425Z,55.53
2019-05-29T23:22:23.823Z,55.61
2019-05-29T23:24:50.484Z,55.73
2019-05-29T23:27:18.655Z,55.83
2019-05-29T23:29:49.204Z,55.96
2019-05-29T23:32:16.686Z,56.12
2019-05-29T23:34:46.435Z,56.29
2019-05-29T23:37:14.647Z,56.42
2019-05-29T23:39:42.843Z,56.52
2019-05-29T23:42:11.041Z,56.65
2019-05-29T23:44:41.534Z,56.89
2019-05-29T23:47:10.129Z,57.04
2019-05-29T23:49:38.289Z,57.28
2019-05-29T23:52:06.428Z,57.31
2019-05-29T23:54:34.577Z,57.30
2019-05-29T23:57:04.177Z,57.37
2019-05-29T23:59:32.399Z,57.38
